Time;durP1;ratioP1;P1;durP2;ratioP2;P2;SDS_P1;SDS_P2;PMS_P1;PMS_P2;Temp;Humidity;BMP_temperature;BMP_pressure;BME280_temperature;BME280_humidity;BME280_pressure;Samples;Min_cycle;Max_cycle;Signal;HPM_P1;HPM_P2
2021/12/13 00:02:37;;;;;;;10.05;6.78;;;;;;;4.40;97.78;100924.66;4967177;28;20038;-90
2021/12/13 00:05:18;;;;;;;10.27;6.75;;;;;;;4.40;98.05;100924.66;4976837;28;20106;-92
2021/12/13 00:07:58;;;;;;;13.15;7.38;;;;;;;4.38;98.47;100926.47;4992499;28;20042;-91
2021/12/13 00:10:41;;;;;;;11.43;7.53;;;;;;;4.35;98.48;100929.16;4975047;28;20478;-92
2021/12/13 00:13:28;;;;;;;9.95;7.18;;;;;;;4.38;98.79;100930.84;4993608;28;20042;-91
2021/12/13 00:16:23;;;;;;;11.10;7.72;;;;;;;4.38;98.60;100925.63;4993924;28;20045;-92
2021/12/13 00:19:41;;;;;;;10.18;7.60;;;;;;;4.38;98.76;100930.84;4994932;28;20117;-91
2021/12/13 00:22:15;;;;;;;9.80;6.77;;;;;;;4.36;99.00;100930.84;5042384;23;20045;-70
2021/12/13 00:24:44;;;;;;;11.90;7.85;;;;;;;4.37;99.08;100932.56;5019966;28;20025;-69
2021/12/13 00:27:14;;;;;;;12.20;7.97;;;;;;;4.36;98.97;100929.09;5031595;28;20030;-69
2021/12/13 00:29:45;;;;;;;11.10;8.00;;;;;;;4.38;99.18;100923.03;5029477;28;20529;-69
2021/12/13 00:32:26;;;;;;;13.27;8.13;;;;;;;4.35;99.66;100927.41;5040070;28;20183;-69
2021/12/13 00:34:51;;;;;;;11.52;8.32;;;;;;;4.37;99.69;100929.94;5035720;28;20041;-70
2021/12/13 00:37:30;;;;;;;11.82;8.32;;;;;;;4.36;99.98;100923.91;5048596;28;20036;-70
2021/12/13 00:40:13;;;;;;;12.43;7.70;;;;;;;4.35;99.96;100924.81;5039275;28;20049;-70
2021/12/13 00:43:17;;;;;;;12.23;8.45;;;;;;;4.35;100.00;100919.63;5042509;28;20486;-70
2021/12/13 00:45:54;;;;;;;12.82;7.88;;;;;;;4.39;100.00;100922.97;5034212;28;20406;-70
2021/12/13 00:48:22;;;;;;;12.63;8.23;;;;;;;4.38;100.00;100923.03;5034734;28;20013;-71
2021/12/13 00:51:04;;;;;;;11.15;8.43;;;;;;;4.38;100.00;100931.69;5035070;28;20629;-70
2021/12/13 00:53:34;;;;;;;13.45;8.80;;;;;;;4.38;100.00;100929.09;5030319;28;20384;-70
2021/12/13 00:56:00;;;;;;;16.23;8.68;;;;;;;4.39;100.00;100928.19;5032581;28;20057;-70
2021/12/13 00:58:27;;;;;;;13.60;8.90;;;;;;;4.40;100.00;100940.25;5042832;28;20033;-69
2021/12/13 01:00:52;;;;;;;14.68;9.13;;;;;;;4.41;100.00;100933.31;5049156;28;20520;-69
2021/12/13 01:03:27;;;;;;;13.90;9.40;;;;;;;4.41;100.00;100936.75;5039600;28;20486;-70
2021/12/13 01:05:58;;;;;;;12.57;8.77;;;;;;;4.40;100.00;100939.41;5043773;28;20041;-71
2021/12/13 01:09:20;;;;;;;14.55;9.35;;;;;;;4.42;100.00;100942.81;5043820;28;20466;-71
2021/12/13 01:11:58;;;;;;;12.93;8.88;;;;;;;4.44;100.00;100954.00;5035126;28;20450;-70
2021/12/13 01:14:34;;;;;;;13.57;9.80;;;;;;;4.44;100.00;100962.63;5030574;28;20107;-70
2021/12/13 01:17:14;;;;;;;12.73;8.38;;;;;;;4.46;100.00;100957.41;5040930;28;20033;-71
2021/12/13 01:19:56;;;;;;;14.63;9.63;;;;;;;4.47;100.00;100964.28;5035437;28;20071;-70
2021/12/13 01:25:39;;;;;;;13.70;9.25;;;;;;;4.47;100.00;100961.69;5041987;28;20044;-70
2021/12/13 01:28:11;;;;;;;14.77;9.63;;;;;;;4.48;100.00;100966.81;5042064;28;20032;-70
2021/12/13 01:30:52;;;;;;;13.60;8.80;;;;;;;4.49;100.00;100959.91;5044357;28;20039;-70
2021/12/13 01:33:20;;;;;;;12.98;9.30;;;;;;;4.47;100.00;100962.53;5044336;28;20500;-71
2021/12/13 01:35:49;;;;;;;18.30;9.57;;;;;;;4.49;100.00;100965.09;5040489;28;20124;-71
2021/12/13 01:38:21;;;;;;;13.05;8.63;;;;;;;4.49;100.00;100971.16;5048991;28;20028;-71
2021/12/13 01:40:52;;;;;;;15.25;9.63;;;;;;;4.49;100.00;100965.94;5040299;28;20040;-71
2021/12/13 01:43:24;;;;;;;15.65;9.65;;;;;;;4.50;100.00;100967.66;5041385;28;20502;-71
2021/12/13 01:45:52;;;;;;;16.02;9.32;;;;;;;4.51;100.00;100966.72;5025549;28;20033;-70
2021/12/13 01:48:26;;;;;;;13.52;9.02;;;;;;;4.52;100.00;100975.38;5023077;28;20021;-73
2021/12/13 01:51:04;;;;;;;14.68;9.07;;;;;;;4.55;100.00;100968.34;5044028;28;20051;-73
2021/12/13 01:53:53;;;;;;;14.15;9.50;;;;;;;4.54;100.00;100973.59;5047377;28;20033;-71
2021/12/13 02:02:01;;;;;;;15.23;9.10;;;;;;;4.56;100.00;100977.84;5041790;28;20037;-71
2021/12/13 02:04:26;;;;;;;13.80;9.07;;;;;;;4.57;100.00;100978.69;5044496;28;20091;-71
2021/12/13 02:07:01;;;;;;;12.88;9.00;;;;;;;4.57;100.00;100974.34;5047039;28;20040;-71
2021/12/13 02:09:31;;;;;;;13.52;8.73;;;;;;;4.57;100.00;100970.91;5039541;28;20017;-71
2021/12/13 02:12:00;;;;;;;15.00;9.73;;;;;;;4.59;100.00;100969.94;5046325;28;20678;-71
2021/12/13 02:14:29;;;;;;;14.77;9.60;;;;;;;4.57;100.00;100966.56;5038820;28;20719;-70
2021/12/13 02:17:02;;;;;;;15.85;9.20;;;;;;;4.59;100.00;100963.91;5037321;28;20061;-71
2021/12/13 02:19:32;;;;;;;13.70;8.27;;;;;;;4.61;100.00;100973.34;5044825;28;20112;-71
2021/12/13 02:22:13;;;;;;;14.23;8.90;;;;;;;4.66;100.00;100972.34;5039556;28;20033;-70
2021/12/13 02:24:38;;;;;;;14.38;8.98;;;;;;;4.67;100.00;100969.69;5043402;28;20040;-70
2021/12/13 02:27:07;;;;;;;13.85;9.05;;;;;;;4.66;100.00;100973.19;5039550;28;20498;-70
2021/12/13 02:29:38;;;;;;;13.50;8.93;;;;;;;4.68;100.00;100974.00;5040093;28;20037;-71
2021/12/13 02:32:10;;;;;;;14.15;9.60;;;;;;;4.68;100.00;100974.00;5042129;28;20030;-71
2021/12/13 02:34:42;;;;;;;14.30;9.25;;;;;;;4.68;100.00;100979.22;5040792;28;20037;-71
2021/12/13 02:37:09;;;;;;;10.63;7.93;;;;;;;4.69;100.00;100977.47;5040380;28;20529;-70
2021/12/13 02:39:47;;;;;;;13.35;8.57;;;;;;;4.69;100.00;100974.88;5037693;28;20108;-71
2021/12/13 02:42:16;;;;;;;12.60;9.13;;;;;;;4.68;100.00;100973.16;5038767;28;20028;-70
2021/12/13 02:44:43;;;;;;;;;;;;;;;4.67;100.00;100968.84;5040535;28;20043;-72
2021/12/13 02:47:23;;;;;;;13.25;8.95;;;;;;;4.68;100.00;100975.78;5046561;28;20404;-71
2021/12/13 02:49:49;;;;;;;12.02;8.32;;;;;;;4.69;100.00;100972.25;5043366;28;20053;-70
2021/12/13 02:52:19;;;;;;;12.00;8.35;;;;;;;4.70;100.00;100966.16;5065597;23;20467;-70
2021/12/13 02:54:52;;;;;;;12.88;8.50;;;;;;;4.69;100.00;100967.91;5037378;28;20121;-70
2021/12/13 02:57:24;;;;;;;12.93;8.57;;;;;;;4.73;100.00;100972.09;5042454;28;20024;-70
2021/12/13 02:59:55;;;;;;;12.00;7.75;;;;;;;4.72;100.00;100979.97;5045271;28;20040;-69
2021/12/13 03:02:31;;;;;;;13.82;8.68;;;;;;;4.71;100.00;100979.13;5032612;28;20550;-69
2021/12/13 03:04:58;;;;;;;14.65;9.10;;;;;;;4.72;100.00;100985.16;5028043;28;20034;-71
2021/12/13 03:07:31;;;;;;;11.43;8.02;;;;;;;4.71;100.00;100980.84;5028150;28;20056;-69
2021/12/13 03:09:57;;;;;;;12.63;8.38;;;;;;;4.71;100.00;100983.44;5030543;28;20037;-69
2021/12/13 03:12:26;;;;;;;11.13;8.15;;;;;;;4.73;100.00;100982.50;5034743;28;20041;-70
2021/12/13 03:14:57;;;;;;;13.00;8.27;;;;;;;4.77;100.00;100985.84;5028814;28;20035;-69
2021/12/13 03:17:28;;;;;;;12.85;8.52;;;;;;;4.77;99.84;100985.84;5029774;28;20625;-70
2021/12/13 03:20:18;;;;;;;11.25;8.30;;;;;;;4.76;100.00;100981.56;5029918;28;20159;-69
2021/12/13 03:23:21;;;;;;;13.48;9.00;;;;;;;4.74;100.00;100983.34;5029788;28;20060;-70
2021/12/13 03:26:23;;;;;;;12.20;8.80;;;;;;;4.75;100.00;100985.06;5029284;28;20034;-71
2021/12/13 03:28:59;;;;;;;11.55;9.02;;;;;;;4.76;100.00;100987.59;5028928;28;20124;-69
2021/12/13 03:31:27;;;;;;;12.88;9.15;;;;;;;4.75;100.00;100985.91;5030146;28;20467;-69
2021/12/13 03:34:01;;;;;;;12.25;8.73;;;;;;;4.76;100.00;100997.16;5029140;28;20375;-70
2021/12/13 03:37:09;;;;;;;12.68;8.60;;;;;;;4.80;100.00;100994.41;5029746;28;20028;-70
2021/12/13 03:39:46;;;;;;;12.73;9.00;;;;;;;4.78;100.00;100995.34;5011179;28;20120;-71
2021/12/13 03:42:17;;;;;;;13.35;9.07;;;;;;;4.79;100.00;100992.72;5034144;28;20014;-70
2021/12/13 03:44:47;;;;;;;12.02;7.90;;;;;;;4.80;100.00;100990.97;5027961;28;20044;-70
2021/12/13 03:47:26;;;;;;;13.23;9.30;;;;;;;4.80;100.00;100994.41;5027794;28;20049;-70
2021/12/13 03:49:54;;;;;;;;;;;;;;;4.82;100.00;100994.34;5029578;28;20045;-70
2021/12/13 03:52:22;;;;;;;13.80;9.20;;;;;;;4.84;100.00;100998.59;5032869;28;19917;-68
2021/12/13 03:54:49;;;;;;;13.40;8.77;;;;;;;4.87;100.00;101000.25;5028998;28;20045;-70
2021/12/13 03:57:16;;;;;;;14.68;8.95;;;;;;;4.89;100.00;100992.41;5028143;28;20037;-70
2021/12/13 03:59:44;;;;;;;14.93;10.20;;;;;;;4.90;100.00;101004.53;5033904;28;20029;-70
2021/12/13 04:02:18;;;;;;;14.25;9.65;;;;;;;4.92;100.00;101002.69;5033061;28;20070;-71
2021/12/13 04:04:50;;;;;;;15.27;9.60;;;;;;;4.95;100.00;101008.66;5028879;28;20068;-70
2021/12/13 04:07:20;;;;;;;14.48;9.45;;;;;;;4.95;100.00;101005.22;5028054;28;20025;-71
2021/12/13 04:09:55;;;;;;;14.80;9.73;;;;;;;4.96;100.00;101012.94;5029120;28;20101;-71
2021/12/13 04:12:26;;;;;;;16.05;9.48;;;;;;;4.97;100.00;101016.38;5033005;28;20094;-71
2021/12/13 04:14:57;;;;;;;14.85;10.13;;;;;;;5.01;100.00;101015.41;5028666;28;20045;-69
2021/12/13 04:17:43;;;;;;;15.63;10.35;;;;;;;5.02;100.00;101015.34;5027533;28;20117;-70
2021/12/13 04:20:32;;;;;;;16.95;10.23;;;;;;;5.06;100.00;101011.75;5025855;28;20577;-71
2021/12/13 04:23:04;;;;;;;15.57;10.18;;;;;;;5.04;100.00;101008.38;5028941;28;20053;-70
2021/12/13 04:25:34;;;;;;;17.15;11.15;;;;;;;5.06;100.00;101016.94;5029443;28;20117;-71
2021/12/13 04:28:05;;;;;;;16.13;10.20;;;;;;;5.09;100.00;101011.66;5028857;28;20120;-71
2021/12/13 04:30:42;;;;;;;15.95;10.63;;;;;;;5.09;100.00;101014.25;5028653;28;20033;-69
2021/12/13 04:33:12;;;;;;;18.15;10.07;;;;;;;5.13;100.00;101020.22;5022143;28;20155;-70
2021/12/13 04:35:37;;;;;;;16.20;10.55;;;;;;;5.13;100.00;101016.78;5028309;28;20044;-69
2021/12/13 04:38:06;;;;;;;18.77;11.38;;;;;;;5.15;100.00;101021.00;5028701;28;20021;-70
2021/12/13 04:40:38;;;;;;;18.55;10.93;;;;;;;5.16;100.00;101017.53;5019405;28;20041;-69
2021/12/13 04:43:16;;;;;;;18.73;11.98;;;;;;;5.17;100.00;101019.22;5020900;28;20125;-71
2021/12/13 04:45:55;;;;;;;20.30;12.33;;;;;;;5.18;100.00;101025.25;5026508;28;20100;-70
2021/12/13 04:48:28;;;;;;;17.65;12.00;;;;;;;5.19;100.00;101027.81;5027278;28;21326;-68
2021/12/13 04:50:56;;;;;;;18.80;11.85;;;;;;;5.19;100.00;101030.44;5028192;28;20072;-70
2021/12/13 04:53:26;;;;;;;20.13;12.38;;;;;;;5.20;100.00;101032.13;5026122;28;20132;-71
2021/12/13 04:55:56;;;;;;;17.90;12.15;;;;;;;5.22;100.00;101034.66;5028098;28;20041;-72
2021/12/13 04:58:23;;;;;;;19.98;11.80;;;;;;;5.23;100.00;101033.78;5028232;28;20025;-70
2021/12/13 05:00:54;;;;;;;19.63;13.10;;;;;;;5.23;100.00;101036.38;5040654;28;20117;-70
2021/12/13 05:03:23;;;;;;;21.42;12.95;;;;;;;5.23;100.00;101041.56;5028043;28;20052;-71
2021/12/13 05:05:50;;;;;;;22.42;13.32;;;;;;;5.26;100.00;101038.84;5028132;28;20033;-69
2021/12/13 05:08:17;;;;;;;19.63;12.57;;;;;;;5.26;100.00;101031.88;5027028;28;20045;-69
2021/12/13 05:10:48;;;;;;;18.90;12.65;;;;;;;5.28;100.00;101050.06;5024469;28;20084;-69
2021/12/13 05:13:23;;;;;;;22.45;13.65;;;;;;;5.27;100.00;101044.03;5029719;28;20510;-67
2021/12/13 05:15:58;;;;;;;24.15;13.13;;;;;;;5.31;100.00;101049.97;5027630;28;20052;-69
2021/12/13 05:18:32;;;;;;;21.17;13.27;;;;;;;5.34;100.00;101055.91;5027863;28;20135;-69
2021/12/13 05:21:08;;;;;;;21.30;13.70;;;;;;;5.37;100.00;101051.50;5025602;28;20360;-71
2021/12/13 05:23:46;;;;;;;22.73;13.75;;;;;;;5.37;100.00;101052.34;5027721;28;20479;-69
2021/12/13 05:26:27;;;;;;;24.70;14.98;;;;;;;5.41;100.00;101051.34;5027567;28;20040;-71
2021/12/13 05:28:52;;;;;;;27.95;15.60;;;;;;;5.42;100.00;101050.47;5021977;28;20041;-69
2021/12/13 05:31:22;;;;;;;25.67;15.70;;;;;;;5.43;100.00;101054.75;5026162;28;20045;-69
2021/12/13 05:33:56;;;;;;;29.42;16.58;;;;;;;5.44;100.00;101048.63;5024550;28;20041;-71
2021/12/13 05:36:27;;;;;;;25.50;15.30;;;;;;;5.48;100.00;101060.63;5026366;28;20037;-71
2021/12/13 05:39:13;;;;;;;27.70;17.13;;;;;;;5.48;100.00;101052.84;5028289;28;20139;-69
2021/12/13 05:41:40;;;;;;;26.38;15.52;;;;;;;5.47;100.00;101056.34;5025238;28;20650;-69
2021/12/13 05:44:12;;;;;;;28.70;16.20;;;;;;;5.49;100.00;101064.13;5027079;28;20655;-70
2021/12/13 05:46:47;;;;;;;28.88;15.95;;;;;;;5.49;100.00;101061.53;5026706;28;20036;-71
2021/12/13 05:49:36;;;;;;;28.52;17.05;;;;;;;5.54;100.00;101077.81;5025242;28;20037;-70
2021/12/13 05:52:24;;;;;;;22.50;15.40;;;;;;;5.53;100.00;101074.38;5021297;28;20670;-68
2021/12/13 05:54:54;;;;;;;27.85;16.50;;;;;;;5.54;100.00;101075.22;5027386;28;20748;-70
2021/12/13 05:57:24;;;;;;;24.88;15.05;;;;;;;5.56;100.00;101073.38;5025986;28;20515;-69
2021/12/13 06:00:20;;;;;;;36.25;15.70;;;;;;;5.58;100.00;101071.59;5030581;28;20040;-71
2021/12/13 06:03:07;;;;;;;27.20;15.95;;;;;;;5.57;100.00;101078.56;5026121;28;20029;-71
2021/12/13 06:05:46;;;;;;;28.42;15.85;;;;;;;5.58;100.00;101090.66;5021449;28;20025;-68
2021/12/13 06:08:32;;;;;;;28.05;16.38;;;;;;;5.61;100.00;101089.72;5026283;28;20025;-68
2021/12/13 06:11:01;;;;;;;27.35;16.38;;;;;;;5.62;100.00;101095.75;5026427;28;20071;-70
2021/12/13 06:13:42;;;;;;;26.10;15.68;;;;;;;5.65;100.00;101083.50;5025246;28;20037;-67
2021/12/13 06:16:17;;;;;;;26.88;16.30;;;;;;;5.72;100.00;101082.41;5022828;28;20529;-70
2021/12/13 06:18:57;;;;;;;29.58;16.45;;;;;;;5.74;100.00;101090.97;5026105;28;20025;-69
2021/12/13 06:21:49;;;;;;;25.38;15.23;;;;;;;5.77;100.00;101090.03;5022211;28;20112;-68
2021/12/13 06:24:23;;;;;;;25.02;15.15;;;;;;;5.76;100.00;101091.78;5025725;28;20067;-68
2021/12/13 06:26:48;;;;;;;26.77;14.73;;;;;;;5.76;100.00;101093.56;5017244;28;20033;-67
2021/12/13 06:29:14;;;;;;;23.98;15.02;;;;;;;5.76;100.00;101101.34;5023770;28;20053;-66
2021/12/13 06:31:45;;;;;;;24.40;15.00;;;;;;;5.76;100.00;101090.94;5026743;28;20117;-68
2021/12/13 06:34:17;;;;;;;25.73;14.98;;;;;;;5.79;100.00;101103.88;5026075;28;20045;-69
2021/12/13 06:36:46;;;;;;;27.63;15.60;;;;;;;5.79;100.00;101102.09;5026496;28;20060;-67
2021/12/13 06:39:16;;;;;;;27.42;15.00;;;;;;;5.81;100.00;101102.03;5026326;28;20029;-69
2021/12/13 06:42:01;;;;;;;25.45;15.57;;;;;;;5.81;100.00;101099.44;5024537;28;20128;-70
2021/12/13 06:44:40;;;;;;;28.52;15.27;;;;;;;5.82;100.00;101102.00;5025961;28;20446;-70
2021/12/13 06:47:13;;;;;;;27.42;16.05;;;;;;;5.83;100.00;101102.84;5024934;28;20034;-69
2021/12/13 06:49:45;;;;;;;28.38;15.93;;;;;;;5.83;100.00;101105.47;5025373;28;20124;-69
2021/12/13 06:52:11;;;;;;;27.40;16.05;;;;;;;5.83;100.00;101103.69;5024251;28;20033;-69
2021/12/13 06:54:46;;;;;;;31.65;16.33;;;;;;;5.85;100.00;101108.84;5025981;28;20037;-69
2021/12/13 06:57:42;;;;;;;36.22;24.10;;;;;;;5.87;100.00;101111.41;5025221;28;20107;-69
2021/12/13 07:00:32;;;;;;;31.83;17.52;;;;;;;5.86;100.00;101113.16;5019016;28;20526;-69
2021/12/13 07:03:03;;;;;;;28.30;16.55;;;;;;;5.88;100.00;101119.16;5027035;28;20546;-69
2021/12/13 07:05:32;;;;;;;33.28;18.02;;;;;;;5.88;100.00;101119.16;5025601;28;20029;-69
2021/12/13 07:08:01;;;;;;;35.13;18.98;;;;;;;5.90;100.00;101117.34;5016159;28;20041;-69
2021/12/13 07:10:33;;;;;;;36.40;18.77;;;;;;;5.92;100.00;101118.16;5024929;28;20560;-70
2021/12/13 07:13:04;;;;;;;36.60;20.13;;;;;;;5.95;100.00;101119.81;5027914;28;20266;-69
2021/12/13 07:15:41;;;;;;;35.38;20.42;;;;;;;5.95;100.00;101118.06;5025793;28;20036;-70
2021/12/13 07:18:29;;;;;;;41.15;19.77;;;;;;;5.99;100.00;101126.63;5019632;28;20025;-68
2021/12/13 07:21:09;;;;;;;40.33;21.33;;;;;;;6.01;100.00;101127.44;5012959;28;20038;-69
2021/12/13 07:23:53;;;;;;;42.53;21.13;;;;;;;6.06;100.00;101131.56;5026083;28;20497;-69
2021/12/13 07:26:40;;;;;;;36.17;19.90;;;;;;;6.06;100.00;101135.94;5023324;28;20041;-67
2021/12/13 07:29:13;;;;;;;38.55;20.48;;;;;;;6.05;100.00;101135.09;5024597;28;20061;-69
2021/12/13 07:31:42;;;;;;;39.80;20.55;;;;;;;6.09;100.00;101134.97;5021855;28;20025;-69
2021/12/13 07:34:17;;;;;;;43.75;21.50;;;;;;;6.10;100.00;101131.47;5038132;28;20045;-69
2021/12/13 07:36:52;;;;;;;41.05;21.23;;;;;;;6.12;100.00;101138.34;5026014;28;20026;-69
2021/12/13 07:39:18;;;;;;;42.58;21.50;;;;;;;6.17;100.00;101141.63;5019042;28;20112;-67
2021/12/13 07:41:48;;;;;;;42.65;21.25;;;;;;;6.16;100.00;101139.06;5028003;28;20052;-69
2021/12/13 07:44:34;;;;;;;39.15;20.10;;;;;;;6.20;100.00;101143.28;5031429;28;20423;-71
2021/12/13 07:47:24;;;;;;;41.55;21.33;;;;;;;6.19;100.00;101151.97;5029462;28;20187;-71
2021/12/13 07:49:58;;;;;;;48.85;23.00;;;;;;;6.21;100.00;101148.41;5029166;28;20446;-73
2021/12/13 07:52:34;;;;;;;41.97;21.25;;;;;;;6.22;100.00;101150.09;5024570;28;20079;-70
2021/12/13 07:55:19;;;;;;;41.72;21.30;;;;;;;6.22;100.00;101147.50;5021508;28;20048;-70
2021/12/13 07:57:46;;;;;;;37.50;20.90;;;;;;;6.22;100.00;101157.06;5028854;28;20406;-70
2021/12/13 08:00:17;;;;;;;41.80;21.42;;;;;;;6.23;100.00;101159.66;5030426;28;20025;-71
2021/12/13 08:02:54;;;;;;;42.13;20.65;;;;;;;6.24;100.00;101160.47;5028503;28;20065;-70
2021/12/13 08:05:24;;;;;;;34.33;20.02;;;;;;;6.24;100.00;101163.09;5028118;28;20113;-69
2021/12/13 08:07:54;;;;;;;38.78;19.95;;;;;;;6.25;100.00;101168.22;5028960;28;20524;-71
2021/12/13 08:10:42;;;;;;;39.88;21.77;;;;;;;6.27;100.00;101173.41;5029141;28;20025;-70
2021/12/13 08:13:13;;;;;;;39.58;21.30;;;;;;;6.30;100.00;101175.88;5029051;28;20453;-71
2021/12/13 08:15:49;;;;;;;36.40;20.10;;;;;;;6.32;100.00;101173.25;5029198;28;20137;-70
2021/12/13 08:18:28;;;;;;;34.60;19.42;;;;;;;6.35;100.00;101171.38;5029764;28;20037;-71
2021/12/13 08:21:00;;;;;;;39.17;18.80;;;;;;;6.38;100.00;101176.47;5029367;28;20048;-70
2021/12/13 08:23:35;;;;;;;40.83;19.77;;;;;;;6.42;100.00;101185.88;5028722;28;20088;-69
2021/12/13 08:26:03;;;;;;;28.83;18.50;;;;;;;6.47;100.00;101183.97;5029507;28;20347;-70
2021/12/13 08:28:48;;;;;;;36.55;19.77;;;;;;;6.49;100.00;101189.97;5029384;28;20051;-70
2021/12/13 08:31:31;;;;;;;38.22;19.52;;;;;;;6.49;100.00;101194.34;5026946;28;20112;-70
2021/12/13 08:34:01;;;;;;;40.70;20.15;;;;;;;6.51;100.00;101182.09;5028351;28;20037;-72
2021/12/13 08:36:43;;;;;;;40.40;21.58;;;;;;;6.52;100.00;101189.00;5028093;28;20437;-71
2021/12/13 08:39:19;;;;;;;34.83;20.48;;;;;;;6.56;100.00;101185.38;5029331;28;20066;-70
2021/12/13 08:41:49;;;;;;;38.13;23.02;;;;;;;6.61;100.00;101185.25;5020411;28;20343;-70
2021/12/13 08:44:21;;;;;;;37.20;20.73;;;;;;;6.65;100.00;101186.81;5021923;28;20067;-70
2021/12/13 08:46:55;;;;;;;35.97;20.75;;;;;;;6.66;100.00;101194.56;5021921;28;20030;-73
2021/12/13 08:49:29;;;;;;;34.28;20.35;;;;;;;6.70;100.00;101200.53;5022156;28;20108;-71
2021/12/13 08:52:13;;;;;;;30.65;19.00;;;;;;;6.71;100.00;101192.66;5020061;28;20049;-72
2021/12/13 08:54:45;;;;;;;31.50;19.17;;;;;;;6.73;100.00;101198.66;5020259;28;20103;-75
2021/12/13 08:57:28;;;;;;;38.35;20.55;;;;;;;6.73;100.00;101201.25;5022013;28;20017;-70
2021/12/13 08:59:56;;;;;;;34.90;20.25;;;;;;;6.74;100.00;101196.91;5020966;28;20050;-71
2021/12/13 09:02:27;;;;;;;34.05;19.42;;;;;;;6.74;100.00;101202.97;5019196;28;20037;-73
2021/12/13 09:05:07;;;;;;;34.45;20.55;;;;;;;6.76;100.00;101203.78;5019940;28;20124;-71
2021/12/13 09:07:33;;;;;;;36.40;20.42;;;;;;;6.77;100.00;101205.47;5018891;28;20210;-72
2021/12/13 09:10:00;;;;;;;32.17;19.90;;;;;;;6.80;100.00;101204.50;5021763;28;20554;-72
2021/12/13 09:12:42;;;;;;;31.27;19.08;;;;;;;6.86;100.00;101204.28;5018278;28;20017;-71
2021/12/13 09:15:22;;;;;;;44.45;19.52;;;;;;;6.86;100.00;101209.50;5021656;28;20045;-73
2021/12/13 09:17:50;;;;;;;34.03;20.33;;;;;;;6.88;100.00;101212.91;5019281;28;20060;-70
2021/12/13 09:20:23;;;;;;;32.63;19.10;;;;;;;6.91;100.00;101215.41;5020969;28;20260;-74
2021/12/13 09:22:53;;;;;;;38.78;21.20;;;;;;;6.90;100.00;101216.31;5019708;28;20049;-75
2021/12/13 09:25:31;;;;;;;44.45;22.60;;;;;;;6.91;100.00;101214.53;5020067;28;20359;-70
2021/12/13 09:28:22;;;;;;;44.35;23.02;;;;;;;6.91;100.00;101212.78;5021695;28;20115;-75
2021/12/13 09:31:11;;;;;;;41.58;21.85;;;;;;;6.94;100.00;101219.66;5019349;28;20037;-76
2021/12/13 09:33:45;;;;;;;38.08;21.98;;;;;;;6.95;100.00;101224.81;5018608;28;20148;-79
2021/12/13 09:36:19;;;;;;;33.53;20.17;;;;;;;6.99;100.00;101222.94;5021482;28;20025;-76
2021/12/13 09:39:01;;;;;;;33.50;20.15;;;;;;;6.99;100.00;101205.53;5021961;28;20141;-76
2021/12/13 09:41:38;;;;;;;35.55;20.27;;;;;;;6.97;100.00;101209.09;5022412;28;20253;-77
2021/12/13 09:44:09;;;;;;;34.20;19.60;;;;;;;7.01;100.00;101211.53;5021166;28;20041;-75
2021/12/13 09:46:48;;;;;;;34.75;20.42;;;;;;;7.04;100.00;101210.56;5021898;28;20038;-75
2021/12/13 09:49:22;;;;;;;;;;;;;;;7.10;100.00;101210.34;5020424;28;20045;-75
2021/12/13 09:51:52;;;;;;;34.70;18.75;;;;;;;7.20;100.00;101213.47;5017494;28;19952;-73
2021/12/13 09:54:21;;;;;;;32.97;18.95;;;;;;;7.23;100.00;101210.72;5022542;28;20036;-76
2021/12/13 09:56:50;;;;;;;38.88;22.25;;;;;;;7.25;100.00;101214.13;5023223;28;20034;-78
2021/12/13 09:59:23;;;;;;;30.05;19.52;;;;;;;7.29;99.97;101210.50;5022209;28;20029;-77
2021/12/13 10:01:49;;;;;;;35.03;19.13;;;;;;;7.35;100.00;101212.88;5021261;28;20076;-76
2021/12/13 10:04:19;;;;;;;32.00;19.23;;;;;;;7.35;100.00;101209.41;5021200;28;20053;-78
2021/12/13 10:07:04;;;;;;;35.85;19.55;;;;;;;7.35;99.99;101215.47;5022356;28;20083;-76
2021/12/13 10:09:34;;;;;;;32.80;19.20;;;;;;;7.42;100.00;101216.94;5021206;28;20029;-73
2021/12/13 10:12:08;;;;;;;35.90;20.20;;;;;;;7.46;100.00;101208.09;5019510;28;20135;-73
2021/12/13 10:14:39;;;;;;;32.83;19.48;;;;;;;7.51;100.00;101210.50;5018895;28;20514;-73
2021/12/13 10:17:07;;;;;;;37.08;20.88;;;;;;;7.55;100.00;101214.69;5021038;28;20032;-72
2021/12/13 10:19:38;;;;;;;34.10;19.15;;;;;;;7.59;100.00;101218.03;5020460;28;20044;-72
2021/12/13 10:22:05;;;;;;;40.17;19.58;;;;;;;7.60;100.00;101206.66;5018768;28;20442;-72
2021/12/13 10:24:39;;;;;;;32.83;19.25;;;;;;;7.65;100.00;101210.81;5019989;28;20476;-73
2021/12/13 10:27:07;;;;;;;33.78;19.52;;;;;;;7.62;100.00;101202.25;5019700;28;20037;-73
2021/12/13 10:29:34;;;;;;;34.60;19.85;;;;;;;7.70;100.00;101214.06;5019641;28;20064;-72
2021/12/13 10:32:11;;;;;;;34.33;20.70;;;;;;;7.73;99.78;101203.53;5019459;28;20649;-70
2021/12/13 10:34:45;;;;;;;34.67;20.95;;;;;;;7.77;99.74;101209.47;5019476;28;20065;-76
2021/12/13 10:37:23;;;;;;;40.85;22.30;;;;;;;7.74;99.96;101202.59;5016228;28;20026;-73
2021/12/13 10:39:53;;;;;;;36.88;22.02;;;;;;;7.81;99.85;101202.38;5019237;28;20029;-75
2021/12/13 10:42:27;;;;;;;34.60;21.40;;;;;;;7.80;99.62;101204.13;5015960;28;20013;-74
2021/12/13 10:44:53;;;;;;;34.10;21.30;;;;;;;7.84;99.49;101203.09;5019872;28;20161;-73
2021/12/13 10:47:30;;;;;;;36.90;21.05;;;;;;;7.93;99.39;101205.31;5012935;28;20099;-72
2021/12/13 10:49:56;;;;;;;35.97;20.65;;;;;;;7.96;99.05;101213.03;5014198;28;20038;-75
2021/12/13 10:52:30;;;;;;;32.33;20.00;;;;;;;7.98;98.70;101210.38;5017122;28;20033;-75
2021/12/13 10:54:59;;;;;;;36.33;20.63;;;;;;;8.00;98.83;101204.13;5017878;28;20112;-71
2021/12/13 10:57:34;;;;;;;34.72;19.92;;;;;;;8.10;98.56;101211.63;5018342;28;20025;-71
2021/12/13 11:00:00;;;;;;;32.85;19.42;;;;;;;8.16;97.66;101211.38;5019040;28;20038;-71
2021/12/13 11:02:30;;;;;;;31.98;19.30;;;;;;;8.18;97.55;101209.53;5018298;28;20095;-75
2021/12/13 11:05:18;;;;;;;32.35;19.60;;;;;;;8.23;97.31;101212.78;5020351;28;20434;-70
2021/12/13 11:07:45;;;;;;;32.83;19.15;;;;;;;8.22;97.32;101214.53;5018818;28;20041;-74
2021/12/13 11:10:14;;;;;;;27.13;18.17;;;;;;;8.21;97.09;101225.91;5015717;28;20228;-70
2021/12/13 11:12:43;;;;;;;29.20;19.02;;;;;;;8.20;97.25;101212.94;5016572;28;20040;-71
2021/12/13 11:15:16;;;;;;;28.88;18.38;;;;;;;8.19;96.92;101217.31;5020897;28;20017;-71
2021/12/13 11:17:42;;;;;;;29.02;17.48;;;;;;;8.21;96.99;101212.00;5019962;28;20075;-72
2021/12/13 11:20:16;;;;;;;27.10;17.25;;;;;;;8.17;96.75;101210.44;5023292;28;20116;-74
2021/12/13 11:22:44;;;;;;;30.55;19.02;;;;;;;8.22;96.86;101211.09;5020305;28;20045;-73
2021/12/13 11:25:24;;;;;;;32.85;20.38;;;;;;;8.24;96.57;101210.13;5021549;28;20124;-71
2021/12/13 11:27:50;;;;;;;32.00;18.83;;;;;;;8.31;96.65;101208.09;5022686;28;20033;-74
2021/12/13 11:30:20;;;;;;;29.67;17.10;;;;;;;8.32;96.02;101211.56;5022852;28;20037;-71
2021/12/13 11:32:58;;;;;;;26.40;17.25;;;;;;;8.41;96.13;101200.72;5023028;28;20034;-69
2021/12/13 11:36:02;;;;;;;25.33;16.02;;;;;;;8.44;95.90;101204.06;5021459;28;20041;-72
2021/12/13 11:39:05;;;;;;;25.13;15.95;;;;;;;8.47;95.85;101208.31;5023120;28;20048;-72
2021/12/13 11:41:34;;;;;;;24.38;15.20;;;;;;;8.48;95.63;101195.16;5027188;28;20037;-74
2021/12/13 11:44:30;;;;;;;25.08;15.65;;;;;;;8.51;95.46;101201.19;5019681;28;20123;-72
2021/12/13 11:47:23;;;;;;;24.27;16.08;;;;;;;8.49;95.57;101201.25;5022430;28;20034;-72
2021/12/13 11:50:03;;;;;;;25.67;16.33;;;;;;;8.54;95.91;101194.06;5022194;28;20053;-72
2021/12/13 11:53:03;;;;;;;27.52;16.92;;;;;;;8.61;95.40;101212.94;5021938;28;20322;-71
2021/12/13 11:55:49;;;;;;;25.13;14.85;;;;;;;8.52;95.20;101205.50;5022456;28;20068;-72
2021/12/13 11:58:27;;;;;;;24.77;15.25;;;;;;;8.49;95.18;101209.06;5020977;28;20037;-72
2021/12/13 12:01:14;;;;;;;26.17;16.05;;;;;;;8.47;95.92;101205.69;5023109;28;20045;-73